メインページ
METAR-TAF:

METAR-TAF

空港 :

トリブバン国際空港

カトマンズ, ネパール

緯度: 27-42N, 経度: 085-22E, 海抜: 1337m

現時点の気象観測

当レポートは20分前の02:50(UTC)に作成
の風 3kt、東/北東から南/南東の間で変化する
気温 23°C
湿度 78%
気圧 1015 hPa
視程: 4500m
高度1500ftの雲はほとんどない
高度3000ftの雲は散在している
高度10000ftの千切れ雲あり

METAR: VNKT 210250Z 10003KT 060V150 4500 BR FEW015 SCT030 BKN100 23/19 Q1015 NOSIG

時間: 08:55 (03:10 UTC)

予報

当レポートは4時間10分前の23:00(UTC)に作成
予報は21日の 00時(UTC)から 21日の 24時(UTC)まで有効
変向風 3kt
視程: 3000m
高度1500ftの雲はほとんどない
高度3000ftの雲は散在している
高度10000ftの千切れ雲あり
21日の 04時(UTC)から 21日の 05時(UTC)まで徐々に
南東の風 3kt
視程: 5000m
高度1500ftの雲はほとんどない
高度3000ftの雲は散在している
21日の 07時(UTC)から 21日の 08時(UTC)まで徐々に
西/南西の風 8kt
視程: 8000m
高度2000ftの雲はほとんどない
高度10000ftの雲は散在している
確率 40%
21日の 08時(UTC)から 21日の 12時(UTC)まで
変向風 10kt
視程: 5000m
高度2500ftの雲はほとんどない, 積乱雲.
高度10000ftの千切れ雲あり
激しい雷雨, 小雨
21日の 14時(UTC)から 21日の 15時(UTC)まで徐々に
変向風 2kt
視程: 6000m
高度1500ftの雲はほとんどない
高度3000ftの雲は散在している
高度10000ftの千切れ雲あり

TAF: VNKT 202300Z 2100/2124 VRB03KT 3000 BR FEW015 SCT030 BKN100 BECMG 2104/2105 13003KT 5000 BR FEW015 SCT030 BECMG 2107/2108 24008KT 8000 FEW020 SCT100 PROB40 2108/2112 VRB10KT 5000 -TSRA FEW025CB BKN100 BECMG 2114/2115 VRB02KT 6000 FEW015 SCT030 BKN100

4,000以上の空港の気象観測と天気予報(METAR報とTAF報)

利用可能な観測所は地図上に黄色い丸と赤い丸で示す。

丸の上にカーソルを重ねると観測所名を参照できる。

次にクリックすると気象観測と天気予報を参照できる。

マップの切り替え:黒色「×」印の緑ボタンをクリックして拡大、「-」印の緑ボタンをクリックして縮小、緑色の三角印をクリックして隣りの地図に切り替え


METAR-TAF: